Houston, Texas
Traffic Map
Current Weather Conditions
Houston, Texas
Few Clouds
Few Clouds
79°
Feels Like: 79°
Wind Chill: 79° Ceiling: Unl
Heat Index: 79° Visibility: 10mi
Dew Point: 51° Wind: 7mph
Humidity: 38% Direction: 50° (NE)
Pressure: 30.06in Gusts: 0mph
Raw Report DataKIAH 302253Z 05006KT 10SM FEW300 26/11 A3006 RMK AO2 SLP179 T02610106
Traffic Incident Summary
Active as of:
Severity:
Category:
InformationThere was an issue retrieving the traffic information for this location. Please try a different location or try again shortly.
Advertisements
Track Severe Weather on mobile